Observation data for Goodlett on 08/14/2019      Previous  Date  Next       Current Mesonet Observations  Soil Data  Daily Summary Page  Observations in Plain Language
KGDS 140500Z 03005KT 26/21 A3005 RMK A01 T02570207  RH  079%=      5-min Rain = 0
KGDS 140505Z 04005KT 26/21 A3005 RMK A01 T02550208  RH  080%=      5-min Rain = 0
KGDS 140510Z 04005KT 25/21 A3005 RMK A01 T02540208  RH  080%=      5-min Rain = 0
KGDS 140515Z 05006KT 25/21 A3005 RMK A01 T02540208  RH  080%=      5-min Rain = 0
KGDS 140520Z 05007KT 25/21 A3005 RMK A01 T02530208  RH  081%=      5-min Rain = 0
KGDS 140525Z 05007KT 25/21 A3005 RMK A01 T02520208  RH  081%=      5-min Rain = 0
KGDS 140530Z 05007KT 25/21 A3005 RMK A01 T02510208  RH  082%=      5-min Rain = 0
KGDS 140535Z 04007KT 25/21 A3006 RMK A01 T02500208  RH  082%=      5-min Rain = 0
KGDS 140540Z 03007KT 25/21 A3007 RMK A01 T02490207  RH  082%=      5-min Rain = 0
KGDS 140545Z 03007KT 25/21 A3007 RMK A01 T02500206  RH  081%=      5-min Rain = 0
KGDS 140550Z 03005KT 25/21 A3007 RMK A01 T02510206  RH  081%=      5-min Rain = 0
KGDS 140555Z 02005KT 25/21 A3007 RMK A01 T02500206  RH  081%=      5-min Rain = 0
KGDS 140600Z 01006KT 25/21 A3007 RMK A01 T02490206  RH  082%=      5-min Rain = 0
KGDS 140605Z 02008KT 25/21 A3007 RMK A01 T02490205  RH  082%=      5-min Rain = 0
KGDS 140610Z 01008KT 25/20 A3008 RMK A01 T02490204  RH  081%=      5-min Rain = 0
KGDS 140615Z 01008KT 25/20 A3008 RMK A01 T02490204  RH  081%=      5-min Rain = 0
KGDS 140620Z 01008KT 25/21 A3008 RMK A01 T02480205  RH  082%=      5-min Rain = 0
KGDS 140625Z 01008KT 25/21 A3008 RMK A01 T02480205  RH  082%=      5-min Rain = 0
KGDS 140630Z 01007KT 25/20 A3008 RMK A01 T02490203  RH  081%=      5-min Rain = 0
KGDS 140635Z 02006KT 25/20 A3007 RMK A01 T02490202  RH  080%=      5-min Rain = 0
KGDS 140640Z 04006KT 25/20 A3007 RMK A01 T02500201  RH  079%=      5-min Rain = 0
KGDS 140645Z 03007KT 25/20 A3007 RMK A01 T02490200  RH  078%=      5-min Rain = 0
KGDS 140650Z 03006KT 25/20 A3006 RMK A01 T02490198  RH  078%=      5-min Rain = 0
KGDS 140655Z 02006KT 25/20 A3006 RMK A01 T02480198  RH  078%=      5-min Rain = 0
KGDS 140700Z 02006KT 25/20 A3006 RMK A01 T02470198  RH  079%=      5-min Rain = 0
KGDS 140705Z 02006KT 25/20 A3006 RMK A01 T02460198  RH  079%=      5-min Rain = 0
KGDS 140710Z 03006KT 25/20 A3006 RMK A01 T02450198  RH  080%=      5-min Rain = 0
KGDS 140715Z 04005KT 24/20 A3006 RMK A01 T02440198  RH  080%=      5-min Rain = 0
KGDS 140720Z 04005KT 24/20 A3006 RMK A01 T02420198  RH  081%=      5-min Rain = 0
KGDS 140725Z 03006KT 24/20 A3006 RMK A01 T02410198  RH  082%=      5-min Rain = 0
KGDS 140730Z 01008G13KT 24/20 A3006 RMK A01 T02400198  RH  082%=      5-min Rain = 0
KGDS 140735Z 01009KT 24/20 A3007 RMK A01 T02390196  RH  082%=      5-min Rain = 0
KGDS 140740Z 02010G15KT 24/20 A3007 RMK A01 T02400195  RH  080%=      5-min Rain = 0
KGDS 140745Z 02011G16KT 24/19 A3007 RMK A01 T02410194  RH  079%=      5-min Rain = 0
KGDS 140750Z 02012G17KT 24/19 A3007 RMK A01 T02400193  RH  079%=      5-min Rain = 0
KGDS 140755Z 02012G17KT 24/19 A3007 RMK A01 T02390193  RH  080%=      5-min Rain = 0
KGDS 140800Z 02012G17KT 24/19 A3007 RMK A01 T02380191  RH  079%=      5-min Rain = 0
KGDS 140805Z 02011G16KT 24/19 A3007 RMK A01 T02360190  RH  080%=      5-min Rain = 0
KGDS 140810Z 02013G19KT 24/19 A3007 RMK A01 T02350188  RH  079%=      5-min Rain = 0
KGDS 140815Z 02012G17KT 23/19 A3007 RMK A01 T02340185  RH  078%=      5-min Rain = 0
KGDS 140820Z 02014KT 23/18 A3007 RMK A01 T02320181  RH  077%=      5-min Rain = 0
KGDS 140825Z 02012KT 23/18 A3007 RMK A01 T02300180  RH  077%=      5-min Rain = 0
KGDS 140830Z 03012KT 23/18 A3007 RMK A01 T02280180  RH  078%=      5-min Rain = 0
KGDS 140835Z 03012G17KT 23/18 A3007 RMK A01 T02280179  RH  078%=      5-min Rain = 0
KGDS 140840Z 03012G17KT 23/18 A3007 RMK A01 T02260178  RH  078%=      5-min Rain = 0
KGDS 140845Z 03011KT 23/18 A3007 RMK A01 T02250178  RH  079%=      5-min Rain = 0
KGDS 140850Z 03010KT 22/18 A3007 RMK A01 T02230178  RH  080%=      5-min Rain = 0
KGDS 140855Z 03011G16KT 22/18 A3007 RMK A01 T02220176  RH  079%=      5-min Rain = 0
KGDS 140900Z 03010KT 22/18 A3008 RMK A01 T02200176  RH  080%=      5-min Rain = 0
KGDS 140905Z 03010KT 22/18 A3008 RMK A01 T02190175  RH  080%=      5-min Rain = 0
KGDS 140910Z 04010KT 22/18 A3008 RMK A01 T02180175  RH  080%=      5-min Rain = 0
KGDS 140915Z 03009KT 22/18 A3008 RMK A01 T02170175  RH  081%=      5-min Rain = 0
KGDS 140920Z 02010KT 22/18 A3008 RMK A01 T02160175  RH  081%=      5-min Rain = 0
KGDS 140925Z 02010KT 22/18 A3009 RMK A01 T02150175  RH  082%=      5-min Rain = 0
KGDS 140930Z 02009KT 22/18 A3009 RMK A01 T02150175  RH  082%=      5-min Rain = 0
KGDS 140935Z 02009KT 21/18 A3009 RMK A01 T02140175  RH  083%=      5-min Rain = 0
KGDS 140940Z 02009KT 21/18 A3009 RMK A01 T02130175  RH  083%=      5-min Rain = 0
KGDS 140945Z 02009KT 21/18 A3009 RMK A01 T02130175  RH  083%=      5-min Rain = 0
KGDS 140950Z 02008KT 21/18 A3009 RMK A01 T02130175  RH  083%=      5-min Rain = 0
KGDS 140955Z 02009KT 21/18 A3009 RMK A01 T02130175  RH  083%=      5-min Rain = 0
KGDS 141000Z 01008KT 21/18 A3009 RMK A01 T02130175  RH  083%=      5-min Rain = 0
KGDS 141005Z 02009KT 21/18 A3009 RMK A01 T02130175  RH  083%=      5-min Rain = 0
KGDS 141010Z 02007KT 21/18 A3009 RMK A01 T02130175  RH  083%=      5-min Rain = 0
KGDS 141015Z 02007KT 21/18 A3009 RMK A01 T02120175  RH  084%=      5-min Rain = 0
KGDS 141020Z 01007KT 21/18 A301 RMK A01 T02120176  RH  084%=      5-min Rain = 0
KGDS 141025Z 00007KT 21/18 A301 RMK A01 T02110176  RH  085%=      5-min Rain = 0
KGDS 141030Z 36007KT 21/18 A301 RMK A01 T02100175  RH  085%=      5-min Rain = 0
KGDS 141035Z 36007KT 21/18 A301 RMK A01 T02080176  RH  086%=      5-min Rain = 0
KGDS 141040Z 36007KT 21/18 A301 RMK A01 T02070176  RH  087%=      5-min Rain = 0
KGDS 141045Z 35007KT 21/18 A301 RMK A01 T02060175  RH  087%=      5-min Rain = 0
KGDS 141050Z 35006KT 21/18 A301 RMK A01 T02050175  RH  087%=      5-min Rain = 0
KGDS 141055Z 35007KT 20/18 A301 RMK A01 T02040175  RH  088%=      5-min Rain = 0
KGDS 141100Z 35008KT 20/18 A3009 RMK A01 T02030175  RH  088%=      5-min Rain = 0
KGDS 141105Z 35007KT 20/18 A301 RMK A01 T02030175  RH  088%=      5-min Rain = 0
KGDS 141110Z 35008KT 20/18 A301 RMK A01 T02030175  RH  088%=      5-min Rain = 0
KGDS 141115Z 35007KT 20/17 A301 RMK A01 T02020174  RH  088%=      5-min Rain = 0
KGDS 141120Z 35008KT 20/17 A301 RMK A01 T02020174  RH  088%=      5-min Rain = 0
KGDS 141125Z 35009KT 20/17 A301 RMK A01 T02010174  RH  089%=      5-min Rain = 0
KGDS 141130Z 35008KT 20/17 A3011 RMK A01 T02010174  RH  089%=      5-min Rain = 0
KGDS 141135Z 34008KT 20/17 A3011 RMK A01 T02010174  RH  089%=      5-min Rain = 0
KGDS 141140Z 35009KT 20/17 A3011 RMK A01 T02010174  RH  088%=      5-min Rain = 0
KGDS 141145Z 35009KT 20/17 A3011 RMK A01 T02020173  RH  088%=      5-min Rain = 0
KGDS 141150Z 35010KT 20/17 A3011 RMK A01 T02020173  RH  087%=      5-min Rain = 0
KGDS 141155Z 35010KT 20/17 A3011 RMK A01 T02030173  RH  087%=      5-min Rain = 0
KGDS 141200Z 35008KT 20/17 A3011 RMK A01 T02030173  RH  087%=      5-min Rain = 0
KGDS 141205Z 35008KT 20/17 A3011 RMK A01 T02030173  RH  087%=      5-min Rain = 0
KGDS 141210Z 35007KT 20/17 A3011 RMK A01 T02030173  RH  087%=      5-min Rain = 0
KGDS 141215Z 36007KT 20/17 A3011 RMK A01 T02030173  RH  087%=      5-min Rain = 0
KGDS 141220Z 36008KT 20/17 A3012 RMK A01 T02040174  RH  087%=      5-min Rain = 0
KGDS 141225Z 35008KT 21/17 A3012 RMK A01 T02050174  RH  087%=      5-min Rain = 0
KGDS 141230Z 35009KT 21/17 A3013 RMK A01 T02060174  RH  086%=      5-min Rain = 0
KGDS 141235Z 35009KT 21/18 A3013 RMK A01 T02070175  RH  086%=      5-min Rain = 0
KGDS 141240Z 34007KT 21/18 A3013 RMK A01 T02080175  RH  086%=      5-min Rain = 0
KGDS 141245Z 34006KT 21/18 A3012 RMK A01 T02100176  RH  085%=      5-min Rain = 0
KGDS 141250Z 35007KT 21/18 A3013 RMK A01 T02130177  RH  084%=      5-min Rain = 0
KGDS 141255Z 34005KT 22/18 A3013 RMK A01 T02150178  RH  084%=      5-min Rain = 0
KGDS 141300Z 35006KT 22/18 A3012 RMK A01 T02170179  RH  083%=      5-min Rain = 0
KGDS 141305Z 35006KT 22/18 A3012 RMK A01 T02190178  RH  082%=      5-min Rain = 0
KGDS 141310Z 35006KT 22/18 A3012 RMK A01 T02210179  RH  081%=      5-min Rain = 0
KGDS 141315Z 35006KT 22/18 A3013 RMK A01 T02240180  RH  080%=      5-min Rain = 0
KGDS 141320Z 36007KT 23/18 A3013 RMK A01 T02260180  RH  079%=      5-min Rain = 0
KGDS 141325Z 36008KT 23/18 A3013 RMK A01 T02290182  RH  079%=      5-min Rain = 0
KGDS 141330Z 00008KT 23/18 A3013 RMK A01 T02320182  RH  078%=      5-min Rain = 0
KGDS 141335Z 36008KT 23/18 A3013 RMK A01 T02340183  RH  077%=      5-min Rain = 0
KGDS 141340Z 00007KT 24/18 A3013 RMK A01 T02370184  RH  076%=      5-min Rain = 0
KGDS 141345Z 36007KT 24/18 A3013 RMK A01 T02380184  RH  076%=      5-min Rain = 0
KGDS 141350Z 36005KT 24/19 A3013 RMK A01 T02410185  RH  075%=      5-min Rain = 0
KGDS 141355Z 35005KT 24/19 A3013 RMK A01 T02440186  RH  074%=      5-min Rain = 0
KGDS 141400Z 34005KT 25/19 A3013 RMK A01 T02470188  RH  073%=      5-min Rain = 0
KGDS 141405Z 33005KT 25/19 A3014 RMK A01 T02500189  RH  073%=      5-min Rain = 0
KGDS 141410Z 33006KT 25/19 A3014 RMK A01 T02540191  RH  072%=      5-min Rain = 0
KGDS 141415Z 34008KT 25/19 A3014 RMK A01 T02540191  RH  072%=      5-min Rain = 0
KGDS 141420Z 33009KT 25/19 A3015 RMK A01 T02540192  RH  072%=      5-min Rain = 0
KGDS 141425Z 33009KT 26/19 A3015 RMK A01 T02550192  RH  072%=      5-min Rain = 0
KGDS 141430Z 32010KT 26/19 A3015 RMK A01 T02570192  RH  071%=      5-min Rain = 0
KGDS 141435Z 33012KT 25/19 A3015 RMK A01 T02530188  RH  071%=      5-min Rain = 0
KGDS 141440Z 32010KT 25/19 A3015 RMK A01 T02530188  RH  071%=      5-min Rain = 0
KGDS 141445Z 32010KT 25/19 A3015 RMK A01 T02540189  RH  071%=      5-min Rain = 0
KGDS 141450Z 33010KT 26/19 A3015 RMK A01 T02550189  RH  071%=      5-min Rain = 0
KGDS 141455Z 33008KT 26/19 A3015 RMK A01 T02580190  RH  070%=      5-min Rain = 0
KGDS 141500Z 33008KT 26/19 A3015 RMK A01 T02590191  RH  070%=      5-min Rain = 0
KGDS 141505Z 32007KT 26/19 A3015 RMK A01 T02630192  RH  069%=      5-min Rain = 0
KGDS 141510Z 33006KT 26/19 A3015 RMK A01 T02640192  RH  068%=      5-min Rain = 0
KGDS 141515Z 35006KT 27/19 A3015 RMK A01 T02670194  RH  068%=      5-min Rain = 0
KGDS 141520Z 34003KT 27/19 A3014 RMK A01 T02680194  RH  068%=      5-min Rain = 0
KGDS 141525Z 34005KT 27/20 A3014 RMK A01 T02710195  RH  067%=      5-min Rain = 0
KGDS 141530Z 33003KT 27/20 A3014 RMK A01 T02720196  RH  067%=      5-min Rain = 0
KGDS 141535Z 34002KT 28/20 A3014 RMK A01 T02760196  RH  065%=      5-min Rain = 0
KGDS 141540Z 32005KT 28/20 A3014 RMK A01 T02780197  RH  065%=      5-min Rain = 0
KGDS 141545Z 35006KT 28/20 A3014 RMK A01 T02800197  RH  064%=      5-min Rain = 0
KGDS 141550Z 34007KT 28/20 A3014 RMK A01 T02800197  RH  064%=      5-min Rain = 0
KGDS 141555Z 34006KT 28/20 A3014 RMK A01 T02820197  RH  064%=      5-min Rain = 0
KGDS 141600Z 33007KT 28/20 A3015 RMK A01 T02830198  RH  063%=      5-min Rain = 0
KGDS 141605Z 33007KT 29/20 A3015 RMK A01 T02900200  RH  062%=      5-min Rain = 0
KGDS 141610Z 34006KT 29/20 A3014 RMK A01 T02870197  RH  062%=      5-min Rain = 0
KGDS 141615Z 35006G11KT 29/20 A3014 RMK A01 T02890198  RH  061%=      5-min Rain = 0
KGDS 141620Z 03007KT 29/20 A3014 RMK A01 T02930199  RH  060%=      5-min Rain = 0
KGDS 141625Z 36005KT 29/20 A3014 RMK A01 T02930197  RH  060%=      5-min Rain = 0
KGDS 141630Z 03007KT 29/19 A3013 RMK A01 T02940194  RH  058%=      5-min Rain = 0
KGDS 141635Z 05006KT 29/19 A3013 RMK A01 T02940192  RH  057%=      5-min Rain = 0
KGDS 141640Z 02006KT 30/20 A3013 RMK A01 T02990195  RH  057%=      5-min Rain = 0
KGDS 141645Z 06007G13KT 30/20 A3012 RMK A01 T03000196  RH  057%=      5-min Rain = 0
KGDS 141650Z 05008KT 30/20 A3012 RMK A01 T03000195  RH  057%=      5-min Rain = 0
KGDS 141655Z 07006G11KT 30/20 A3012 RMK A01 T03000197  RH  057%=      5-min Rain = 0
KGDS 141700Z 06008KT 30/20 A3012 RMK A01 T02980197  RH  058%=      5-min Rain = 0
KGDS 141705Z 06007KT 30/20 A3011 RMK A01 T02980199  RH  058%=      5-min Rain = 0
KGDS 141710Z 08006KT 30/20 A3011 RMK A01 T03000200  RH  058%=      5-min Rain = 0
KGDS 141715Z 08009KT 30/20 A3011 RMK A01 T03000199  RH  058%=      5-min Rain = 0
KGDS 141720Z 04007KT 30/20 A301 RMK A01 T02990198  RH  058%=      5-min Rain = 0
KGDS 141725Z 05007G14KT 30/20 A301 RMK A01 T03020202  RH  058%=      5-min Rain = 0
KGDS 141730Z 07009KT 31/20 A301 RMK A01 T03080202  RH  057%=      5-min Rain = 0
KGDS 141735Z 05010KT 31/20 A301 RMK A01 T03080200  RH  056%=      5-min Rain = 0
KGDS 141740Z 07010KT 31/20 A301 RMK A01 T03070198  RH  055%=      5-min Rain = 0
KGDS 141745Z 08010KT 31/20 A301 RMK A01 T03080196  RH  054%=      5-min Rain = 0
KGDS 141750Z 04010KT 31/20 A301 RMK A01 T03100197  RH  054%=      5-min Rain = 0
KGDS 141755Z 04008G13KT 31/20 A3011 RMK A01 T03110195  RH  053%=      5-min Rain = 0
KGDS 141800Z 03008KT 31/19 A3011 RMK A01 T03090194  RH  053%=      5-min Rain = 0
KGDS 141805Z 01008G13KT 31/20 A3011 RMK A01 T03110196  RH  053%=      5-min Rain = 0
KGDS 141810Z 02007G12KT 31/20 A301 RMK A01 T03140199  RH  054%=      5-min Rain = 0
KGDS 141815Z 01009G14KT 32/20 A301 RMK A01 T03180200  RH  053%=      5-min Rain = 0
KGDS 141820Z 36009KT 32/19 A301 RMK A01 T03180193  RH  050%=      5-min Rain = 0
KGDS 141825Z 03007G14KT 32/19 A301 RMK A01 T03180192  RH  050%=      5-min Rain = 0
KGDS 141830Z 04010KT 32/19 A301 RMK A01 T03190188  RH  048%=      5-min Rain = 0
KGDS 141835Z 02007G14KT 32/19 A3009 RMK A01 T03200192  RH  049%=      5-min Rain = 0
KGDS 141840Z 04008KT 33/19 A3009 RMK A01 T03260191  RH  048%=      5-min Rain = 0
KGDS 141845Z 04009G14KT 32/19 A3009 RMK A01 T03220189  RH  048%=      5-min Rain = 0
KGDS 141850Z 03010KT 33/19 A3009 RMK A01 T03250189  RH  047%=      5-min Rain = 0
KGDS 141855Z 02008KT 32/18 A3008 RMK A01 T03220184  RH  046%=      5-min Rain = 0
KGDS 141900Z 04009G15KT 32/19 A3008 RMK A01 T03240187  RH  047%=      5-min Rain = 0
KGDS 141905Z 05008KT 33/19 A3007 RMK A01 T03260190  RH  047%=      5-min Rain = 0
KGDS 141910Z 04009G15KT 32/19 A3007 RMK A01 T03220186  RH  047%=      5-min Rain = 0
KGDS 141915Z 04010G15KT 32/19 A3007 RMK A01 T03230186  RH  047%=      5-min Rain = 0
KGDS 141920Z 04010G16KT 33/18 A3007 RMK A01 T03250182  RH  045%=      5-min Rain = 0
KGDS 141925Z 03007G12KT 33/18 A3007 RMK A01 T03290184  RH  045%=      5-min Rain = 0
KGDS 141930Z 05009KT 33/18 A3006 RMK A01 T03280181  RH  044%=      5-min Rain = 0
KGDS 141935Z 06006G11KT 33/18 A3006 RMK A01 T03290178  RH  043%=      5-min Rain = 0
KGDS 141940Z 05004G10KT 33/18 A3006 RMK A01 T03270182  RH  045%=      5-min Rain = 0
KGDS 141945Z 35003G9KT 33/18 A3006 RMK A01 T03290182  RH  044%=      5-min Rain = 0
KGDS 141950Z 03009KT 33/18 A3006 RMK A01 T03320179  RH  042%=      5-min Rain = 0
KGDS 141955Z 03006G13KT 33/18 A3006 RMK A01 T03280182  RH  044%=      5-min Rain = 0
KGDS 142000Z 05010KT 33/18 A3006 RMK A01 T03290181  RH  044%=      5-min Rain = 0
KGDS 142005Z 02005G12KT 33/18 A3006 RMK A01 T03290178  RH  043%=      5-min Rain = 0
KGDS 142010Z 01006KT 33/18 A3005 RMK A01 T03330179  RH  042%=      5-min Rain = 0
KGDS 142015Z 04007KT 33/18 A3005 RMK A01 T03340180  RH  042%=      5-min Rain = 0
KGDS 142020Z 06007KT 33/18 A3004 RMK A01 T03340180  RH  042%=      5-min Rain = 0
KGDS 142025Z 06007G13KT 33/18 A3004 RMK A01 T03310177  RH  042%=      5-min Rain = 0
KGDS 142030Z 07008KT 33/18 A3004 RMK A01 T03330181  RH  043%=      5-min Rain = 0
KGDS 142035Z 08004KT 33/18 A3003 RMK A01 T03310177  RH  042%=      5-min Rain = 0
KGDS 142040Z 05006KT 33/18 A3003 RMK A01 T03330181  RH  043%=      5-min Rain = 0
KGDS 142045Z 03008KT 34/18 A3003 RMK A01 T03370182  RH  042%=      5-min Rain = 0
KGDS 142050Z 03005KT 33/18 A3003 RMK A01 T03330180  RH  043%=      5-min Rain = 0
KGDS 142055Z 04009G16KT 34/18 A3002 RMK A01 T03380183  RH  042%=      5-min Rain = 0
KGDS 142100Z 04005KT 33/18 A3002 RMK A01 T03340180  RH  042%=      5-min Rain = 0
KGDS 142105Z 05009G15KT 34/18 A3002 RMK A01 T03350180  RH  042%=      5-min Rain = 0
KGDS 142110Z 06008KT 34/18 A3002 RMK A01 T03370179  RH  041%=      5-min Rain = 0
KGDS 142115Z 07007G12KT 34/18 A3001 RMK A01 T03380180  RH  041%=      5-min Rain = 0
KGDS 142120Z 06009G16KT 34/18 A3001 RMK A01 T03390178  RH  041%=      5-min Rain = 0
KGDS 142125Z 08005G12KT 34/18 A3001 RMK A01 T03360176  RH  041%=      5-min Rain = 0
KGDS 142130Z 07009KT 34/18 A3001 RMK A01 T03400177  RH  040%=      5-min Rain = 0
KGDS 142135Z 07006KT 34/17 A3001 RMK A01 T03410174  RH  039%=      5-min Rain = 0
KGDS 142140Z 06005KT 34/18 A3001 RMK A01 T03410178  RH  040%=      5-min Rain = 0
KGDS 142145Z 05009KT 34/18 A3001 RMK A01 T03390176  RH  040%=      5-min Rain = 0
KGDS 142150Z 04006G11KT 34/18 A30 RMK A01 T03380175  RH  040%=      5-min Rain = 0
KGDS 142155Z 07007KT 34/18 A30 RMK A01 T03420176  RH  039%=      5-min Rain = 0
KGDS 142200Z 10007KT 34/17 A30 RMK A01 T03430173  RH  038%=      5-min Rain = 0
KGDS 142205Z 08005G10KT 34/17 A30 RMK A01 T03390173  RH  039%=      5-min Rain = 0
KGDS 142210Z 05006KT 34/17 A30 RMK A01 T03400174  RH  039%=      5-min Rain = 0
KGDS 142215Z 11006G12KT 34/18 A30 RMK A01 T03410176  RH  040%=      5-min Rain = 0
KGDS 142220Z 11005G11KT 34/18 A30 RMK A01 T03430176  RH  039%=      5-min Rain = 0
KGDS 142225Z 07003G8KT 34/18 A2999 RMK A01 T03400175  RH  039%=      5-min Rain = 0
KGDS 142230Z 07007KT 34/17 A2999 RMK A01 T03420174  RH  039%=      5-min Rain = 0
KGDS 142235Z 07005KT 35/17 A2999 RMK A01 T03450173  RH  038%=      5-min Rain = 0
KGDS 142240Z 05004KT 35/17 A2999 RMK A01 T03450170  RH  037%=      5-min Rain = 0
KGDS 142245Z 08004G9KT 34/17 A2999 RMK A01 T03430170  RH  038%=      5-min Rain = 0
KGDS 142250Z 07005KT 34/17 A2999 RMK A01 T03430172  RH  038%=      5-min Rain = 0
KGDS 142255Z 07006KT 34/17 A2999 RMK A01 T03440171  RH  038%=      5-min Rain = 0
KGDS 142300Z 03004G10KT 34/17 A30 RMK A01 T03420171  RH  038%=      5-min Rain = 0
KGDS 142305Z 06006G11KT 34/17 A30 RMK A01 T03430170  RH  038%=      5-min Rain = 0
KGDS 142310Z 07008KT 34/17 A30 RMK A01 T03440166  RH  036%=      5-min Rain = 0
KGDS 142315Z 04008KT 34/16 A2999 RMK A01 T03440162  RH  036%=      5-min Rain = 0
KGDS 142320Z 06006KT 34/16 A30 RMK A01 T03440163  RH  036%=      5-min Rain = 0
KGDS 142325Z 04006KT 34/16 A30 RMK A01 T03430158  RH  035%=      5-min Rain = 0
KGDS 142330Z 06009KT 34/17 A30 RMK A01 T03420170  RH  038%=      5-min Rain = 0
KGDS 142335Z 05008KT 34/17 A30 RMK A01 T03410170  RH  038%=      5-min Rain = 0
KGDS 142340Z 06008KT 34/17 A30 RMK A01 T03400171  RH  039%=      5-min Rain = 0
KGDS 142345Z 06006KT 34/17 A2999 RMK A01 T03390170  RH  039%=      5-min Rain = 0
KGDS 142350Z 05003KT 34/17 A2999 RMK A01 T03390172  RH  039%=      5-min Rain = 0
KGDS 142355Z 04007KT 34/17 A2999 RMK A01 T03410170  RH  038%=      5-min Rain = 0
KGDS 150000Z 06007KT 34/17 A30 RMK A01 T03400169  RH  038%=      5-min Rain = 0
KGDS 150005Z 07009KT 34/17 A30 RMK A01 T03410166  RH  037%=      5-min Rain = 0
KGDS 150010Z 07008KT 34/16 A30 RMK A01 T03380164  RH  037%=      5-min Rain = 0
KGDS 150015Z 07007KT 34/16 A30 RMK A01 T03380162  RH  037%=      5-min Rain = 0
KGDS 150020Z 07007KT 34/16 A30 RMK A01 T03370161  RH  037%=      5-min Rain = 0
KGDS 150025Z 07006KT 34/16 A30 RMK A01 T03370158  RH  036%=      5-min Rain = 0
KGDS 150030Z 07007KT 34/16 A30 RMK A01 T03370160  RH  037%=      5-min Rain = 0
KGDS 150035Z 05007KT 34/16 A30 RMK A01 T03360160  RH  037%=      5-min Rain = 0
KGDS 150040Z 06008KT 33/16 A30 RMK A01 T03340158  RH  036%=      5-min Rain = 0
KGDS 150045Z 06007KT 33/16 A30 RMK A01 T03320157  RH  037%=      5-min Rain = 0
KGDS 150050Z 06007KT 33/16 A30 RMK A01 T03310158  RH  037%=      5-min Rain = 0
KGDS 150055Z 06006KT 33/16 A30 RMK A01 T03280162  RH  039%=      5-min Rain = 0
KGDS 150100Z 05005KT 33/16 A30 RMK A01 T03270163  RH  039%=      5-min Rain = 0
KGDS 150105Z 05005KT 32/17 A3001 RMK A01 T03240165  RH  041%=      5-min Rain = 0
KGDS 150110Z 06005KT 32/17 A3001 RMK A01 T03210166  RH  042%=      5-min Rain = 0
KGDS 150115Z 06005KT 32/17 A3001 RMK A01 T03180167  RH  043%=      5-min Rain = 0
KGDS 150120Z 06006KT 31/17 A3001 RMK A01 T03140168  RH  044%=      5-min Rain = 0
KGDS 150125Z 06005KT 31/17 A3001 RMK A01 T03090170  RH  046%=      5-min Rain = 0
KGDS 150130Z 05005KT 31/17 A3002 RMK A01 T03050171  RH  047%=      5-min Rain = 0
KGDS 150135Z 05005KT 30/17 A3002 RMK A01 T03020173  RH  048%=      5-min Rain = 0
KGDS 150140Z 05005KT 30/17 A3002 RMK A01 T02980174  RH  050%=      5-min Rain = 0
KGDS 150145Z 05005KT 30/18 A3002 RMK A01 T02960175  RH  051%=      5-min Rain = 0
KGDS 150150Z 04005KT 30/18 A3002 RMK A01 T02950177  RH  051%=      5-min Rain = 0
KGDS 150155Z 04005KT 29/18 A3002 RMK A01 T02940178  RH  052%=      5-min Rain = 0
KGDS 150200Z 04005KT 29/18 A3002 RMK A01 T02920179  RH  053%=      5-min Rain = 0
KGDS 150205Z 04005KT 29/18 A3002 RMK A01 T02900179  RH  054%=      5-min Rain = 0
KGDS 150210Z 04004KT 29/18 A3003 RMK A01 T02880180  RH  055%=      5-min Rain = 0
KGDS 150215Z 04004KT 29/18 A3003 RMK A01 T02870181  RH  055%=      5-min Rain = 0
KGDS 150220Z 04004KT 29/18 A3003 RMK A01 T02870180  RH  055%=      5-min Rain = 0
KGDS 150225Z 05004KT 29/18 A3004 RMK A01 T02870180  RH  055%=      5-min Rain = 0
KGDS 150230Z 05004KT 29/18 A3004 RMK A01 T02860180  RH  055%=      5-min Rain = 0
KGDS 150235Z 05004KT 29/18 A3004 RMK A01 T02860181  RH  056%=      5-min Rain = 0
KGDS 150240Z 05004KT 29/18 A3004 RMK A01 T02850181  RH  056%=      5-min Rain = 0
KGDS 150245Z 06004KT 29/18 A3004 RMK A01 T02850180  RH  056%=      5-min Rain = 0
KGDS 150250Z 05005KT 29/18 A3005 RMK A01 T02860182  RH  056%=      5-min Rain = 0
KGDS 150255Z 05005KT 29/18 A3005 RMK A01 T02850182  RH  056%=      5-min Rain = 0
KGDS 150300Z 06004KT 28/18 A3005 RMK A01 T02830182  RH  057%=      5-min Rain = 0
KGDS 150305Z 06005KT 28/18 A3006 RMK A01 T02830184  RH  058%=      5-min Rain = 0
KGDS 150310Z 06005KT 28/18 A3006 RMK A01 T02830184  RH  058%=      5-min Rain = 0
KGDS 150315Z 06005KT 28/19 A3006 RMK A01 T02820185  RH  058%=      5-min Rain = 0
KGDS 150320Z 06005KT 28/18 A3006 RMK A01 T02810184  RH  059%=      5-min Rain = 0
KGDS 150325Z 06005KT 28/18 A3006 RMK A01 T02810183  RH  059%=      5-min Rain = 0
KGDS 150330Z 07006KT 28/18 A3006 RMK A01 T02800184  RH  059%=      5-min Rain = 0
KGDS 150335Z 07006KT 28/18 A3006 RMK A01 T02820181  RH  057%=      5-min Rain = 0
KGDS 150340Z 07006KT 29/18 A3007 RMK A01 T02850181  RH  056%=      5-min Rain = 0
KGDS 150345Z 06005KT 28/18 A3007 RMK A01 T02820184  RH  058%=      5-min Rain = 0
KGDS 150350Z 06006KT 28/19 A3007 RMK A01 T02800185  RH  059%=      5-min Rain = 0
KGDS 150355Z 07007KT 28/18 A3007 RMK A01 T02800184  RH  059%=      5-min Rain = 0
KGDS 150400Z 07007KT 28/18 A3007 RMK A01 T02810184  RH  059%=      5-min Rain = 0
KGDS 150405Z 08007KT 28/18 A3007 RMK A01 T02810182  RH  058%=      5-min Rain = 0
KGDS 150410Z 09007KT 28/18 A3007 RMK A01 T02810183  RH  058%=      5-min Rain = 0
KGDS 150415Z 10006KT 28/19 A3007 RMK A01 T02760185  RH  061%=      5-min Rain = 0
KGDS 150420Z 12006KT 27/19 A3007 RMK A01 T02700187  RH  064%=      5-min Rain = 0
KGDS 150425Z 12006KT 27/19 A3007 RMK A01 T02660190  RH  067%=      5-min Rain = 0
KGDS 150430Z 12006KT 26/19 A3007 RMK A01 T02630189  RH  067%=      5-min Rain = 0
KGDS 150435Z 11006KT 26/19 A3007 RMK A01 T02640187  RH  066%=      5-min Rain = 0
KGDS 150440Z 11006KT 27/19 A3008 RMK A01 T02650187  RH  066%=      5-min Rain = 0
KGDS 150445Z 11007KT 27/19 A3008 RMK A01 T02660185  RH  065%=      5-min Rain = 0
KGDS 150450Z 12007KT 27/18 A3008 RMK A01 T02700184  RH  063%=      5-min Rain = 0
KGDS 150455Z 12007KT 27/19 A3008 RMK A01 T02690185  RH  063%=      5-min Rain = 0

Page generated in 0.0095 seconds.